Time;durP1;ratioP1;P1;durP2;ratioP2;P2;SDS_P1;SDS_P2;PMS_P1;PMS_P2;Temp;Humidity;BMP_temperature;BMP_pressure;BME280_temperature;BME280_humidity;BME280_pressure;Samples;Min_cycle;Max_cycle;Signal;HPM_P1;HPM_P2
2021/09/04 00:00:05;;;;;;;5.15;3.22;;;19.20;62.10;;;;;;2353537;53;21005;-72
2021/09/04 00:02:31;;;;;;;4.95;3.03;;;19.10;62.20;;;;;;2352208;53;21435;-68
2021/09/04 00:04:58;;;;;;;4.68;2.87;;;19.10;62.30;;;;;;2352108;53;21053;-69
2021/09/04 00:07:27;;;;;;;5.25;2.97;;;19.10;62.30;;;;;;2351841;53;21005;-68
2021/09/04 00:09:54;;;;;;;5.12;3.08;;;19.10;62.40;;;;;;2332399;53;21065;-70
2021/09/04 00:12:21;;;;;;;5.47;2.97;;;19.10;62.40;;;;;;2351971;53;20953;-71
2021/09/04 00:14:47;;;;;;;7.60;2.80;;;19.00;62.20;;;;;;2602789;52;21986;-69
2021/09/04 00:17:15;;;;;;;5.18;3.03;;;19.00;62.20;;;;;;2352094;53;20952;-70
2021/09/04 00:19:42;;;;;;;4.95;3.12;;;19.00;62.20;;;;;;2351970;53;21368;-72
2021/09/04 00:22:08;;;;;;;4.75;2.53;;;18.90;62.20;;;;;;2351811;53;20917;-71
2021/09/04 00:24:37;;;;;;;4.70;2.42;;;18.90;62.30;;;;;;2589682;52;21057;-67
2021/09/04 00:27:06;;;;;;;4.95;2.70;;;18.90;62.40;;;;;;2351953;53;22002;-72
2021/09/04 00:29:34;;;;;;;4.47;2.62;;;18.90;62.40;;;;;;2358749;52;20997;-68
2021/09/04 00:32:00;;;;;;;4.32;2.45;;;18.80;62.40;;;;;;2359696;53;20995;-67
2021/09/04 00:34:27;;;;;;;5.35;2.70;;;18.80;62.50;;;;;;2355700;53;20963;-70
2021/09/04 00:36:53;;;;;;;4.30;2.28;;;18.80;62.60;;;;;;2351175;53;21061;-73
2021/09/04 00:39:19;;;;;;;6.47;2.80;;;18.70;62.50;;;;;;2352188;53;21025;-67
2021/09/04 00:41:46;;;;;;;4.87;3.10;;;18.80;62.80;;;;;;2355279;53;21145;-70
2021/09/04 00:44:20;;;;;;;4.95;3.12;;;18.80;62.90;;;;;;2495394;52;20946;-70
2021/09/04 00:46:46;;;;;;;4.55;2.55;;;18.80;63.10;;;;;;2345601;53;22135;-67
2021/09/04 00:49:13;;;;;;;5.45;2.87;;;18.80;63.00;;;;;;2600123;52;22106;-68
2021/09/04 00:51:39;;;;;;;5.15;2.62;;;18.80;63.10;;;;;;2351453;53;22034;-74
2021/09/04 00:54:05;;;;;;;6.25;2.90;;;18.70;63.00;;;;;;2388908;52;22015;-67
2021/09/04 00:56:32;;;;;;;6.75;3.30;;;18.70;63.00;;;;;;2444342;52;20951;-70
2021/09/04 00:59:08;;;;;;;4.80;2.75;;;18.70;62.90;;;;;;2338913;53;20941;-68
2021/09/04 01:01:34;;;;;;;4.28;1.98;;;18.70;62.80;;;;;;2347940;53;20981;-69
2021/09/04 01:04:01;;;;;;;5.57;2.67;;;18.70;62.70;;;;;;2351588;52;21005;-68
2021/09/04 01:06:27;;;;;;;5.15;2.97;;;18.70;62.70;;;;;;2350507;53;21041;-69
2021/09/04 01:08:53;;;;;;;4.47;2.55;;;18.60;62.70;;;;;;2359770;52;20993;-69
2021/09/04 01:11:20;;;;;;;4.00;2.40;;;18.60;62.70;;;;;;2578280;52;20957;-67
2021/09/04 01:13:46;;;;;;;4.97;3.30;;;18.50;62.60;;;;;;2601880;52;20990;-67
2021/09/04 01:16:13;;;;;;;4.90;2.83;;;18.60;62.80;;;;;;2352185;53;21036;-69
2021/09/04 01:18:39;;;;;;;4.87;2.85;;;18.50;62.80;;;;;;2462971;52;20957;-69
2021/09/04 01:21:06;;;;;;;4.35;2.40;;;18.40;62.90;;;;;;2348451;52;21041;-69
2021/09/04 01:23:32;;;;;;;4.60;2.53;;;18.40;62.90;;;;;;2340411;53;20980;-69
2021/09/04 01:26:03;;;;;;;4.57;2.85;;;18.40;62.90;;;;;;2352131;53;22127;-70
2021/09/04 01:28:29;;;;;;;4.87;2.70;;;18.40;62.90;;;;;;2351304;52;21092;-68
2021/09/04 01:30:56;;;;;;;5.35;2.60;;;18.40;62.90;;;;;;2352370;53;20929;-68
2021/09/04 01:33:22;;;;;;;4.28;2.10;;;18.30;62.90;;;;;;2356639;52;21144;-71
2021/09/04 01:35:48;;;;;;;4.78;2.83;;;18.40;63.00;;;;;;2351769;53;20977;-70
2021/09/04 01:38:14;;;;;;;4.60;2.42;;;18.30;63.00;;;;;;2355697;52;20955;-70
2021/09/04 01:40:41;;;;;;;4.07;2.33;;;18.30;63.00;;;;;;2352415;53;21946;-72
2021/09/04 01:43:08;;;;;;;4.20;2.53;;;18.30;63.00;;;;;;2352022;52;21045;-69
2021/09/04 01:45:34;;;;;;;3.92;2.40;;;18.30;63.10;;;;;;2355971;53;21995;-67
2021/09/04 01:48:00;;;;;;;5.37;2.72;;;18.30;63.00;;;;;;2340695;53;21000;-68
2021/09/04 01:50:26;;;;;;;4.45;2.75;;;18.30;63.00;;;;;;2348369;52;21565;-68
2021/09/04 01:52:52;;;;;;;6.68;2.67;;;18.20;62.90;;;;;;2350625;53;20983;-74
2021/09/04 01:55:20;;;;;;;4.53;2.80;;;18.20;63.00;;;;;;2352121;53;21978;-69
2021/09/04 01:57:46;;;;;;;5.10;2.90;;;18.20;62.90;;;;;;2351794;52;20953;-69
2021/09/04 02:00:14;;;;;;;5.25;3.08;;;18.20;63.00;;;;;;2351838;52;21069;-68
2021/09/04 02:02:41;;;;;;;4.05;2.55;;;18.10;63.00;;;;;;2332905;53;21435;-68
2021/09/04 02:05:08;;;;;;;4.78;2.83;;;18.10;63.00;;;;;;2357009;52;20934;-71
2021/09/04 02:07:34;;;;;;;5.65;2.80;;;18.10;63.10;;;;;;2352423;53;21969;-72
2021/09/04 02:10:01;;;;;;;4.45;2.67;;;18.00;63.00;;;;;;2356561;53;20974;-71
2021/09/04 02:12:27;;;;;;;5.90;2.20;;;18.00;63.10;;;;;;2354812;53;21127;-72
2021/09/04 02:14:53;;;;;;;4.55;2.65;;;18.00;63.40;;;;;;2349038;53;20977;-68
2021/09/04 02:17:19;;;;;;;5.75;2.80;;;18.00;63.20;;;;;;2372482;52;20989;-68
2021/09/04 02:19:46;;;;;;;4.60;2.78;;;17.90;63.10;;;;;;2350335;53;21213;-67
2021/09/04 02:22:12;;;;;;;5.10;3.00;;;17.90;63.10;;;;;;2450623;52;21096;-69
2021/09/04 02:24:39;;;;;;;4.65;2.80;;;17.90;63.20;;;;;;2461023;52;20993;-68
2021/09/04 02:27:06;;;;;;;3.97;2.28;;;17.90;63.20;;;;;;2352923;52;21488;-68
2021/09/04 02:29:32;;;;;;;5.60;2.40;;;17.90;63.20;;;;;;2357567;52;20934;-69
2021/09/04 02:31:59;;;;;;;4.40;2.45;;;17.90;63.20;;;;;;2351815;53;20993;-69
2021/09/04 02:34:25;;;;;;;4.60;2.53;;;17.80;63.10;;;;;;2602117;52;21886;-72
2021/09/04 02:36:51;;;;;;;3.92;2.47;;;17.80;63.20;;;;;;2352423;53;21381;-72
2021/09/04 02:39:18;;;;;;;5.12;2.90;;;17.80;63.20;;;;;;2352503;53;20981;-69
2021/09/04 02:41:44;;;;;;;5.65;2.90;;;17.80;63.20;;;;;;2352204;53;20933;-67
2021/09/04 02:44:11;;;;;;;4.57;2.60;;;17.80;63.30;;;;;;2352590;53;20937;-70
2021/09/04 02:46:37;;;;;;;4.47;2.72;;;17.70;63.20;;;;;;2356551;52;20975;-73
2021/09/04 02:49:04;;;;;;;6.78;2.97;;;17.70;63.20;;;;;;2355795;53;21094;-67
2021/09/04 02:51:30;;;;;;;5.45;2.85;;;17.70;63.20;;;;;;2351854;53;20973;-68
2021/09/04 02:53:57;;;;;;;4.22;2.50;;;17.70;63.20;;;;;;2355252;52;21392;-67
2021/09/04 02:56:23;;;;;;;6.20;2.53;;;17.70;63.20;;;;;;2356734;53;21058;-67
2021/09/04 02:58:50;;;;;;;4.55;2.65;;;17.70;63.30;;;;;;2352242;53;21465;-73
2021/09/04 03:01:17;;;;;;;4.68;2.62;;;17.60;63.30;;;;;;2358124;52;21368;-66
2021/09/04 03:03:43;;;;;;;4.18;2.55;;;17.60;63.30;;;;;;2354257;53;20941;-68
2021/09/04 03:06:10;;;;;;;7.32;2.75;;;17.60;63.30;;;;;;2352451;53;20978;-70
2021/09/04 03:08:39;;;;;;;4.72;2.60;;;17.60;63.30;;;;;;2577707;52;20930;-68
2021/09/04 03:11:05;;;;;;;6.10;2.45;;;17.60;63.40;;;;;;2351515;53;20945;-70
2021/09/04 03:13:33;;;;;;;5.18;2.85;;;17.40;63.20;;;;;;2352926;52;20928;-72
2021/09/04 03:15:59;;;;;;;4.93;2.87;;;17.50;63.50;;;;;;2352218;53;20929;-73
2021/09/04 03:18:29;;;;;;;4.47;2.62;;;17.50;63.50;;;;;;2352166;53;20934;-71
2021/09/04 03:20:55;;;;;;;4.78;2.75;;;17.50;63.50;;;;;;2573679;52;20960;-68
2021/09/04 03:23:22;;;;;;;4.20;2.65;;;17.50;63.50;;;;;;2352561;53;20989;-69
2021/09/04 03:25:48;;;;;;;4.95;2.65;;;17.50;63.40;;;;;;2352199;53;21025;-69
2021/09/04 03:28:14;;;;;;;4.90;2.95;;;17.40;63.30;;;;;;2352046;53;21105;-68
2021/09/04 03:30:42;;;;;;;4.62;2.50;;;17.40;63.30;;;;;;2357165;52;21042;-67
2021/09/04 03:33:09;;;;;;;5.62;2.45;;;17.40;63.40;;;;;;2351387;53;20962;-68
2021/09/04 03:35:35;;;;;;;4.90;2.83;;;17.40;63.40;;;;;;2356354;52;21025;-69
2021/09/04 03:38:02;;;;;;;5.50;2.87;;;17.30;63.30;;;;;;2351174;53;20925;-67
2021/09/04 03:40:29;;;;;;;5.37;2.90;;;17.30;63.40;;;;;;2351933;53;20941;-71
2021/09/04 03:42:55;;;;;;;5.68;2.75;;;17.30;63.50;;;;;;2352221;53;20962;-72
2021/09/04 03:45:22;;;;;;;5.45;3.08;;;17.30;63.50;;;;;;2351663;52;21441;-68
2021/09/04 03:47:48;;;;;;;4.65;2.70;;;17.30;63.50;;;;;;2351761;53;20981;-70
2021/09/04 03:50:14;;;;;;;6.00;2.35;;;17.30;63.60;;;;;;2356388;52;20963;-68
2021/09/04 03:52:40;;;;;;;4.45;2.42;;;17.30;63.60;;;;;;2351624;53;20969;-72
2021/09/04 03:55:07;;;;;;;4.65;2.62;;;17.20;63.50;;;;;;2351526;53;20946;-68
2021/09/04 03:57:33;;;;;;;5.12;3.00;;;17.20;63.50;;;;;;2351793;52;22012;-68
2021/09/04 04:00:00;;;;;;;5.43;2.60;;;17.20;63.60;;;;;;2352169;52;20918;-68
2021/09/04 04:02:26;;;;;;;5.37;2.45;;;17.20;63.60;;;;;;2332997;53;20970;-73
2021/09/04 04:04:53;;;;;;;4.50;2.67;;;17.20;63.70;;;;;;2356251;53;20935;-68
2021/09/04 04:07:19;;;;;;;4.90;2.67;;;17.20;63.60;;;;;;2351876;53;21961;-67
2021/09/04 04:09:45;;;;;;;4.78;2.55;;;17.20;63.60;;;;;;2351772;53;21489;-72
2021/09/04 04:12:12;;;;;;;4.47;2.40;;;17.10;63.60;;;;;;2352186;53;21293;-67
2021/09/04 04:14:38;;;;;;;4.53;2.40;;;17.10;63.60;;;;;;2363627;52;21038;-69
2021/09/04 04:17:05;;;;;;;4.40;2.35;;;17.00;63.50;;;;;;2334363;53;21094;-67
2021/09/04 04:19:34;;;;;;;4.10;2.35;;;17.00;63.50;;;;;;2601905;52;21517;-67
2021/09/04 04:22:00;;;;;;;4.43;2.72;;;17.00;63.50;;;;;;2332798;53;21021;-69
2021/09/04 04:24:26;;;;;;;4.75;2.45;;;17.00;63.60;;;;;;2352414;53;20942;-73
2021/09/04 04:26:53;;;;;;;5.20;2.85;;;17.00;63.60;;;;;;2356168;52;21074;-72
2021/09/04 04:29:19;;;;;;;4.47;2.50;;;17.00;63.60;;;;;;2592222;52;20951;-68
2021/09/04 04:31:46;;;;;;;4.75;2.87;;;16.90;63.50;;;;;;2338819;53;20958;-68
2021/09/04 04:34:12;;;;;;;4.00;2.50;;;16.90;63.60;;;;;;2357165;53;20997;-67
2021/09/04 04:36:39;;;;;;;4.65;2.37;;;16.90;63.60;;;;;;2327151;53;21026;-71
2021/09/04 04:39:05;;;;;;;4.53;2.47;;;16.90;63.60;;;;;;2344820;53;21026;-70
2021/09/04 04:41:31;;;;;;;4.70;2.70;;;16.90;63.70;;;;;;2587606;52;20997;-67
2021/09/04 04:43:58;;;;;;;4.80;2.85;;;16.90;63.80;;;;;;2594134;52;20968;-67
2021/09/04 04:46:24;;;;;;;5.65;2.83;;;16.90;63.80;;;;;;2351023;52;20953;-71
2021/09/04 04:48:51;;;;;;;4.97;2.58;;;16.80;63.70;;;;;;2601473;52;20934;-70
2021/09/04 04:51:17;;;;;;;3.87;2.33;;;16.80;63.80;;;;;;2356850;52;21894;-72
2021/09/04 04:53:44;;;;;;;4.47;2.47;;;16.80;63.80;;;;;;2448568;52;20961;-69
2021/09/04 04:56:10;;;;;;;3.53;2.20;;;16.80;63.80;;;;;;2489063;52;22127;-68
2021/09/04 04:58:37;;;;;;;4.40;2.45;;;16.80;63.90;;;;;;2351881;53;21534;-69
2021/09/04 05:01:03;;;;;;;4.72;2.53;;;16.80;64.00;;;;;;2602514;52;20946;-68
2021/09/04 05:03:30;;;;;;;3.78;2.37;;;16.80;64.00;;;;;;2355769;52;20930;-70
2021/09/04 05:05:56;;;;;;;5.43;2.40;;;16.80;63.90;;;;;;2341427;53;22010;-71
2021/09/04 05:08:22;;;;;;;4.93;2.87;;;16.80;64.00;;;;;;2353076;53;21916;-70
2021/09/04 05:10:49;;;;;;;5.10;2.78;;;16.80;64.00;;;;;;2351199;53;21009;-68
2021/09/04 05:13:15;;;;;;;4.80;2.65;;;16.80;64.00;;;;;;2351318;52;21053;-68
2021/09/04 05:15:42;;;;;;;4.50;2.80;;;16.80;64.10;;;;;;2601920;52;21922;-69
2021/09/04 05:18:08;;;;;;;5.45;3.17;;;16.80;64.10;;;;;;2350985;53;21065;-74
2021/09/04 05:20:34;;;;;;;6.07;2.92;;;16.80;64.20;;;;;;2480678;52;21072;-71
2021/09/04 05:23:01;;;;;;;6.43;2.60;;;16.70;64.10;;;;;;2359777;52;21006;-69
2021/09/04 05:25:27;;;;;;;4.82;2.58;;;16.80;64.30;;;;;;2577808;52;22265;-69
2021/09/04 05:27:53;;;;;;;7.10;3.72;;;16.80;64.40;;;;;;2354514;52;22005;-68
2021/09/04 05:30:20;;;;;;;7.25;3.28;;;16.80;64.50;;;;;;2594965;52;20977;-69
2021/09/04 05:32:47;;;;;;;6.05;3.28;;;16.80;64.50;;;;;;2342264;52;20933;-68
2021/09/04 05:35:13;;;;;;;7.25;3.60;;;16.80;64.60;;;;;;2355777;52;21010;-68
2021/09/04 05:37:42;;;;;;;5.18;3.03;;;16.80;64.70;;;;;;2350657;52;20957;-71
2021/09/04 05:40:09;;;;;;;4.75;2.45;;;16.80;64.80;;;;;;2351719;53;20960;-68
2021/09/04 05:42:36;;;;;;;4.82;2.45;;;16.80;64.80;;;;;;2351266;52;20942;-68
2021/09/04 05:45:02;;;;;;;4.32;2.45;;;16.80;64.80;;;;;;2535394;52;21349;-72
2021/09/04 05:47:29;;;;;;;4.43;2.20;;;16.80;64.80;;;;;;2351493;53;20918;-68
2021/09/04 05:49:55;;;;;;;4.30;2.50;;;16.80;64.80;;;;;;2603253;52;21282;-72
2021/09/04 05:52:21;;;;;;;4.30;2.58;;;16.80;64.80;;;;;;2338465;53;20945;-69
2021/09/04 05:54:48;;;;;;;4.18;2.30;;;16.80;64.90;;;;;;2595733;52;21069;-68
2021/09/04 05:57:15;;;;;;;4.60;2.55;;;16.90;65.00;;;;;;2355578;53;20963;-68
2021/09/04 05:59:41;;;;;;;4.97;2.65;;;16.90;65.00;;;;;;2583919;52;21000;-68
2021/09/04 06:02:07;;;;;;;4.12;2.08;;;16.90;65.10;;;;;;2348250;53;21002;-67
2021/09/04 06:04:37;;;;;;;4.82;2.33;;;16.90;65.20;;;;;;2372170;52;20953;-68
2021/09/04 06:07:03;;;;;;;4.30;2.42;;;17.00;65.30;;;;;;2355481;52;20966;-68
2021/09/04 06:09:29;;;;;;;4.15;2.35;;;17.00;65.30;;;;;;2351068;53;20917;-69
2021/09/04 06:11:56;;;;;;;5.12;2.92;;;17.00;65.60;;;;;;2352546;53;20997;-73
2021/09/04 06:14:22;;;;;;;5.10;2.80;;;17.10;65.50;;;;;;2602985;52;21999;-72
2021/09/04 06:16:49;;;;;;;5.57;3.17;;;17.10;65.60;;;;;;2351689;53;21123;-72
2021/09/04 06:19:15;;;;;;;5.85;3.42;;;17.20;65.70;;;;;;2601478;52;21016;-67
2021/09/04 06:21:41;;;;;;;5.47;3.12;;;17.20;65.70;;;;;;2601856;52;20942;-71
2021/09/04 06:24:08;;;;;;;5.30;3.25;;;17.20;65.80;;;;;;2422177;52;21048;-68
2021/09/04 06:26:34;;;;;;;5.00;3.15;;;17.30;65.90;;;;;;2351964;53;20942;-72
2021/09/04 06:29:01;;;;;;;4.87;3.12;;;17.30;66.00;;;;;;2604346;52;20946;-69
2021/09/04 06:31:27;;;;;;;4.80;2.83;;;17.40;66.10;;;;;;2352588;53;20934;-68
2021/09/04 06:33:55;;;;;;;5.72;3.28;;;17.40;66.20;;;;;;2575630;52;22068;-71
2021/09/04 06:36:22;;;;;;;5.60;3.22;;;17.50;66.40;;;;;;2345475;53;21472;-69
2021/09/04 06:38:49;;;;;;;5.80;3.47;;;17.60;66.50;;;;;;2358092;52;21027;-69
2021/09/04 06:41:15;;;;;;;6.12;3.03;;;17.60;66.60;;;;;;2352746;53;20958;-67
2021/09/04 06:43:41;;;;;;;7.07;3.33;;;17.70;67.00;;;;;;2353538;53;21044;-71
2021/09/04 06:46:08;;;;;;;5.70;3.85;;;17.80;67.30;;;;;;2353152;53;20962;-69
2021/09/04 06:48:34;;;;;;;4.65;3.00;;;17.90;67.50;;;;;;2362749;52;20938;-69
2021/09/04 06:51:00;;;;;;;6.07;3.17;;;18.00;67.80;;;;;;2424566;52;21029;-69
2021/09/04 06:53:26;;;;;;;5.53;3.35;;;18.10;67.90;;;;;;2354399;53;20942;-67
2021/09/04 06:55:53;;;;;;;6.60;3.53;;;18.20;68.10;;;;;;2575252;52;20955;-68
2021/09/04 06:58:20;;;;;;;5.85;3.72;;;18.30;68.30;;;;;;2563747;52;20969;-67
2021/09/04 07:00:47;;;;;;;4.87;3.15;;;18.40;68.30;;;;;;2338635;53;20950;-67
2021/09/04 07:03:13;;;;;;;5.68;3.22;;;18.60;68.50;;;;;;2423377;52;21306;-68
2021/09/04 07:05:39;;;;;;;6.68;3.33;;;18.70;68.50;;;;;;2356465;52;21117;-69
2021/09/04 07:08:06;;;;;;;5.20;3.35;;;18.80;68.60;;;;;;2562372;52;22131;-67
2021/09/04 07:10:32;;;;;;;5.03;3.03;;;18.90;68.70;;;;;;2350537;53;20969;-69
2021/09/04 07:12:59;;;;;;;5.35;3.20;;;19.00;68.80;;;;;;2557674;52;21044;-68
2021/09/04 07:15:25;;;;;;;5.80;3.22;;;19.20;68.90;;;;;;2352024;52;20937;-69
2021/09/04 07:17:51;;;;;;;6.37;3.60;;;19.30;68.90;;;;;;2558586;52;22188;-70
2021/09/04 07:20:18;;;;;;;5.20;3.28;;;19.40;68.80;;;;;;2358248;53;22037;-69
2021/09/04 07:22:45;;;;;;;5.12;3.28;;;19.60;68.70;;;;;;2421267;52;21818;-69
2021/09/04 07:25:11;;;;;;;5.95;3.47;;;19.70;68.60;;;;;;2348922;53;20966;-67
2021/09/04 07:27:38;;;;;;;6.50;3.87;;;19.80;68.50;;;;;;2603956;52;21061;-68
2021/09/04 07:30:05;;;;;;;6.00;3.45;;;19.90;68.30;;;;;;2395599;52;20922;-67
2021/09/04 07:32:32;;;;;;;6.00;3.05;;;20.00;68.20;;;;;;2358800;52;20952;-71
2021/09/04 07:34:58;;;;;;;5.15;3.12;;;20.20;68.30;;;;;;2353970;53;20985;-68
2021/09/04 07:37:25;;;;;;;5.87;3.42;;;20.30;68.30;;;;;;2493268;52;21895;-70
2021/09/04 07:39:51;;;;;;;5.10;3.33;;;20.40;68.20;;;;;;2358716;52;20957;-69
2021/09/04 07:42:18;;;;;;;6.03;3.20;;;20.50;68.10;;;;;;2404643;52;20952;-70
2021/09/04 07:44:45;;;;;;;5.15;3.45;;;20.60;67.90;;;;;;2353836;52;21393;-70
2021/09/04 07:47:11;;;;;;;6.90;4.12;;;20.70;67.90;;;;;;2353738;53;20949;-70
2021/09/04 07:49:37;;;;;;;6.85;4.40;;;20.80;67.90;;;;;;2360642;52;20950;-67
2021/09/04 07:52:04;;;;;;;6.72;3.87;;;20.90;67.80;;;;;;2353721;53;20931;-68
2021/09/04 07:54:30;;;;;;;7.28;3.90;;;20.90;67.50;;;;;;2353862;53;20989;-70
2021/09/04 07:56:57;;;;;;;6.30;4.00;;;21.00;67.40;;;;;;2604651;52;20946;-69
2021/09/04 07:59:23;;;;;;;6.80;4.00;;;21.10;67.30;;;;;;2353609;53;22244;-70
2021/09/04 08:01:50;;;;;;;6.47;4.12;;;21.20;67.70;;;;;;2464731;52;21092;-69
2021/09/04 08:04:16;;;;;;;7.05;3.85;;;21.30;67.30;;;;;;2354422;53;20953;-71
2021/09/04 08:06:43;;;;;;;6.53;4.10;;;21.40;67.20;;;;;;2356294;53;20945;-72
2021/09/04 08:09:09;;;;;;;7.62;4.05;;;21.30;66.90;;;;;;2358990;52;21018;-71
2021/09/04 08:11:36;;;;;;;5.97;4.18;;;21.50;66.90;;;;;;2488046;52;20945;-70
2021/09/04 08:14:02;;;;;;;6.53;4.35;;;21.60;66.90;;;;;;2355797;53;21459;-71
2021/09/04 08:16:29;;;;;;;7.20;3.85;;;21.70;66.80;;;;;;2476534;52;21366;-69
2021/09/04 08:18:55;;;;;;;6.18;3.95;;;21.70;66.70;;;;;;2343683;53;20938;-68
2021/09/04 08:21:22;;;;;;;5.87;3.65;;;21.80;66.80;;;;;;2351849;53;20961;-71
2021/09/04 08:23:48;;;;;;;7.05;3.55;;;21.90;66.90;;;;;;2395515;52;20956;-70
2021/09/04 08:26:16;;;;;;;7.00;4.45;;;22.00;66.90;;;;;;2601164;52;20945;-67
2021/09/04 08:28:42;;;;;;;6.12;3.97;;;22.00;66.70;;;;;;2351963;53;20985;-70
2021/09/04 08:31:09;;;;;;;6.65;4.35;;;22.10;66.70;;;;;;2411476;52;22255;-70
2021/09/04 08:33:35;;;;;;;8.43;4.05;;;22.20;66.90;;;;;;2355836;52;21017;-70
2021/09/04 08:36:02;;;;;;;7.62;3.87;;;22.30;67.00;;;;;;2527937;52;21241;-72
2021/09/04 08:38:28;;;;;;;8.45;4.60;;;22.40;67.10;;;;;;2354743;53;21435;-70
2021/09/04 08:40:55;;;;;;;7.70;4.47;;;22.50;67.00;;;;;;2364056;53;21102;-69
2021/09/04 08:43:22;;;;;;;6.93;4.40;;;22.60;67.00;;;;;;2352370;53;21108;-68
2021/09/04 08:45:49;;;;;;;7.55;4.72;;;22.70;66.90;;;;;;2339169;53;20949;-69
2021/09/04 08:48:15;;;;;;;7.12;4.28;;;22.70;66.70;;;;;;2472308;53;21010;-70
2021/09/04 08:50:41;;;;;;;6.70;4.28;;;22.80;66.60;;;;;;2482062;52;20930;-70
2021/09/04 08:53:08;;;;;;;7.00;4.55;;;22.90;66.40;;;;;;2357624;52;20967;-68
2021/09/04 08:55:35;;;;;;;7.43;4.95;;;22.90;66.30;;;;;;2602752;52;21308;-70
2021/09/04 08:58:01;;;;;;;7.18;4.62;;;23.10;66.30;;;;;;2357152;53;21041;-68
2021/09/04 09:00:35;;;;;;;7.53;4.78;;;23.20;66.30;;;;;;2399461;52;20997;-69
2021/09/04 09:03:02;;;;;;;7.53;5.05;;;23.30;66.40;;;;;;2390506;53;20986;-68
2021/09/04 09:05:42;;;;;;;6.65;5.03;;;23.40;66.50;;;;;;2589096;52;20957;-69
2021/09/04 09:08:16;;;;;;;7.15;4.85;;;23.50;65.60;;;;;;2377183;52;20950;-71
2021/09/04 09:10:44;;;;;;;8.27;4.65;;;23.50;65.90;;;;;;2357306;53;21364;-71
2021/09/04 09:13:18;;;;;;;6.93;4.68;;;23.60;66.50;;;;;;2361263;52;20950;-68
2021/09/04 09:15:45;;;;;;;7.70;4.93;;;23.70;65.40;;;;;;2522463;52;20982;-70
2021/09/04 09:18:16;;;;;;;7.28;5.47;;;23.80;65.40;;;;;;2607888;52;21153;-69
2021/09/04 09:20:47;;;;;;;6.47;4.70;;;23.90;65.10;;;;;;2581129;52;20946;-69
2021/09/04 09:23:17;;;;;;;8.45;5.20;;;23.90;65.80;;;;;;2356807;53;21278;-70
2021/09/04 09:25:45;;;;;;;6.95;4.75;;;24.00;65.00;;;;;;2606578;52;20933;-70
2021/09/04 09:28:13;;;;;;;6.60;4.57;;;24.00;65.00;;;;;;2374340;52;21010;-69
2021/09/04 09:30:56;;;;;;;7.12;5.03;;;24.10;64.80;;;;;;2580213;52;20997;-67
2021/09/04 09:33:24;;;;;;;6.62;4.82;;;24.20;64.00;;;;;;2337769;53;21081;-68
2021/09/04 09:35:51;;;;;;;7.20;4.37;;;24.20;64.70;;;;;;2464080;52;21857;-70
2021/09/04 09:38:21;;;;;;;6.32;4.20;;;24.30;65.00;;;;;;2365642;53;21033;-69
2021/09/04 09:40:50;;;;;;;6.53;4.45;;;24.40;64.90;;;;;;2370924;52;21010;-70
2021/09/04 09:43:22;;;;;;;7.15;4.87;;;24.40;64.70;;;;;;2364486;53;20992;-68
2021/09/04 09:46:07;;;;;;;7.28;4.65;;;24.50;64.50;;;;;;2602722;52;20918;-70
2021/09/04 09:48:37;;;;;;;6.37;4.50;;;24.60;63.50;;;;;;2366915;53;20953;-71
2021/09/04 09:51:05;;;;;;;6.65;4.68;;;24.70;64.10;;;;;;2618853;52;21077;-70
2021/09/04 09:53:33;;;;;;;6.82;4.40;;;24.80;64.10;;;;;;2362777;53;21025;-69
2021/09/04 09:56:01;;;;;;;8.75;4.35;;;24.80;64.00;;;;;;2598024;52;21037;-71
2021/09/04 09:58:27;;;;;;;7.50;4.78;;;24.90;64.10;;;;;;2366634;53;21430;-68
2021/09/04 10:00:55;;;;;;;6.87;4.87;;;25.00;64.10;;;;;;2366642;53;21001;-71
2021/09/04 10:03:24;;;;;;;6.60;4.62;;;25.00;64.00;;;;;;2374828;53;20903;-69
2021/09/04 10:05:51;;;;;;;7.78;4.85;;;25.00;63.80;;;;;;2364766;52;21210;-70
2021/09/04 10:08:19;;;;;;;7.32;5.57;;;25.20;63.90;;;;;;2367454;53;20981;-68
2021/09/04 10:10:45;;;;;;;7.43;5.20;;;25.30;63.50;;;;;;2366420;52;20993;-72
2021/09/04 10:13:12;;;;;;;7.78;5.55;;;25.40;63.10;;;;;;2376327;52;21018;-70
2021/09/04 10:15:39;;;;;;;6.18;4.47;;;25.50;62.40;;;;;;2368315;53;21429;-70
2021/09/04 10:18:06;;;;;;;6.57;4.12;;;25.60;62.50;;;;;;2453623;52;21020;-68
2021/09/04 10:20:32;;;;;;;6.80;4.28;;;25.60;62.20;;;;;;2370035;52;21541;-70
2021/09/04 10:23:53;;;;;;;5.82;4.18;;;25.70;62.20;;;;;;2367214;53;20965;-69
2021/09/04 10:26:38;;;;;;;5.75;3.80;;;25.70;60.90;;;;;;2372006;52;20975;-70
2021/09/04 10:29:18;;;;;;;5.37;3.58;;;25.80;60.80;;;;;;2494468;52;21095;-69
2021/09/04 10:32:54;;;;;;;6.37;4.05;;;25.90;60.70;;;;;;2375907;52;21421;-70
2021/09/04 10:35:40;;;;;;;5.80;3.58;;;25.90;60.30;;;;;;2362718;52;21059;-71
2021/09/04 10:41:38;;;;;;;5.45;3.83;;;26.00;60.70;;;;;;2590090;52;20958;-69
2021/09/04 10:44:05;;;;;;;5.62;3.47;;;26.10;60.90;;;;;;2373101;52;21983;-71
2021/09/04 10:46:31;;;;;;;6.65;4.00;;;26.10;61.60;;;;;;2354981;53;20949;-69
2021/09/04 10:49:02;;;;;;;6.22;4.00;;;26.20;61.20;;;;;;2365772;53;20958;-71
2021/09/04 10:51:48;;;;;;;4.45;3.28;;;26.20;60.70;;;;;;2618558;52;21033;-70
2021/09/04 10:54:51;;;;;;;4.82;3.25;;;26.30;59.70;;;;;;2371878;53;21023;-71
2021/09/04 10:57:18;;;;;;;5.70;3.40;;;26.30;59.70;;;;;;2374356;53;20982;-71
2021/09/04 11:00:18;;;;;;;6.82;3.35;;;26.40;60.50;;;;;;2611954;52;20918;-71
2021/09/04 11:03:13;;;;;;;4.93;3.10;;;26.50;59.50;;;;;;2366799;53;20901;-69
2021/09/04 11:06:06;;;;;;;4.95;3.00;;;26.50;59.80;;;;;;2369428;53;20957;-70
2021/09/04 11:08:42;;;;;;;6.53;3.62;;;26.60;59.20;;;;;;2368114;52;20958;-74
2021/09/04 11:11:50;;;;;;;4.90;3.00;;;26.70;59.50;;;;;;2374962;53;20930;-70
2021/09/04 11:14:23;;;;;;;5.30;3.10;;;26.80;58.90;;;;;;2372105;52;20930;-73
2021/09/04 11:16:58;;;;;;;5.25;3.50;;;26.80;59.30;;;;;;2498085;52;20997;-72
2021/09/04 11:19:28;;;;;;;5.72;3.30;;;26.90;59.60;;;;;;2355332;53;20933;-72
2021/09/04 11:21:59;;;;;;;5.65;3.15;;;27.00;59.30;;;;;;2471370;52;20974;-69
2021/09/04 11:24:35;;;;;;;4.87;3.20;;;27.00;59.20;;;;;;2308903;53;3140924;-67
2021/09/04 11:27:07;;;;;;;4.93;3.35;;;27.10;59.40;;;;;;2486299;52;20927;-71
2021/09/04 11:29:54;;;;;;;4.95;3.45;;;27.20;59.40;;;;;;2370783;52;20911;-69
2021/09/04 11:32:24;;;;;;;5.12;3.17;;;27.20;58.50;;;;;;2370371;53;20998;-72
2021/09/04 11:34:55;;;;;;;5.97;3.22;;;27.30;59.10;;;;;;2367615;53;21748;-69
2021/09/04 11:37:26;;;;;;;4.00;2.95;;;27.30;59.20;;;;;;2378452;53;20975;-70
2021/09/04 11:39:54;;;;;;;5.75;3.78;;;27.40;59.00;;;;;;2366111;53;20992;-70
2021/09/04 11:42:23;;;;;;;4.35;3.15;;;27.40;59.00;;;;;;2433001;52;20965;-72
2021/09/04 11:44:56;;;;;;;5.37;3.33;;;27.50;59.00;;;;;;2367119;53;20906;-69
2021/09/04 11:47:24;;;;;;;5.87;2.87;;;27.50;59.00;;;;;;2618879;52;21564;-69
2021/09/04 11:49:54;;;;;;;5.72;3.65;;;27.60;58.90;;;;;;2371743;53;20942;-69
2021/09/04 11:52:32;;;;;;;5.07;3.58;;;27.70;58.60;;;;;;2380486;52;21062;-69
2021/09/04 11:55:13;;;;;;;4.70;3.20;;;27.70;57.80;;;;;;2352336;53;20962;-68
2021/09/04 11:57:41;;;;;;;5.82;3.80;;;27.70;57.70;;;;;;2371254;52;21017;-68
2021/09/04 12:00:17;;;;;;;5.80;3.90;;;27.70;58.00;;;;;;2619131;52;20955;-70
2021/09/04 12:03:44;;;;;;;4.90;3.17;;;27.80;57.60;;;;;;2368542;52;20938;-68
2021/09/04 12:06:10;;;;;;;4.95;3.05;;;27.80;57.10;;;;;;2374786;52;21423;-69
2021/09/04 12:08:37;;;;;;;5.32;3.70;;;27.90;58.20;;;;;;2365429;52;21765;-68
2021/09/04 12:11:06;;;;;;;5.55;3.47;;;27.90;58.00;;;;;;2370766;53;21475;-68
2021/09/04 12:13:35;;;;;;;4.95;3.35;;;27.90;57.70;;;;;;2371754;53;21792;-69
2021/09/04 12:16:02;;;;;;;10.48;3.37;;;27.90;57.80;;;;;;2371200;53;20964;-72
2021/09/04 12:18:42;;;;;;;4.25;2.97;;;28.00;57.80;;;;;;2373411;52;21597;-68
2021/09/04 12:21:25;;;;;;;4.75;3.28;;;28.00;57.40;;;;;;2354192;53;21537;-70
2021/09/04 12:23:56;;;;;;;4.90;3.30;;;28.10;57.50;;;;;;2619655;52;21018;-69
2021/09/04 12:26:23;;;;;;;4.87;3.12;;;28.10;57.80;;;;;;2619617;52;20943;-66
2021/09/04 12:28:49;;;;;;;5.85;3.72;;;28.10;58.10;;;;;;2368683;52;20929;-68
2021/09/04 12:31:17;;;;;;;7.07;3.62;;;28.20;58.10;;;;;;2547872;52;20975;-68
2021/09/04 12:34:55;;;;;;;4.90;3.28;;;28.20;57.70;;;;;;2367955;52;21433;-70
2021/09/04 12:37:28;;;;;;;4.72;3.00;;;28.30;56.90;;;;;;2373242;52;21033;-68
2021/09/04 12:40:05;;;;;;;4.07;2.58;;;28.40;57.00;;;;;;2366884;53;21378;-68
2021/09/04 12:42:33;;;;;;;6.03;3.12;;;28.40;56.80;;;;;;2371095;52;20923;-67
2021/09/04 12:45:19;;;;;;;5.15;2.97;;;28.50;57.20;;;;;;2366813;53;20921;-70
2021/09/04 12:47:48;;;;;;;7.30;4.10;;;28.50;56.60;;;;;;2370481;52;20959;-68
2021/09/04 12:50:21;;;;;;;5.32;3.70;;;28.60;57.20;;;;;;2361259;53;20939;-72
2021/09/04 12:53:02;;;;;;;4.30;3.03;;;28.70;56.70;;;;;;2366887;53;20954;-70
2021/09/04 12:55:52;;;;;;;5.40;3.67;;;28.80;56.20;;;;;;2367176;52;20997;-67
2021/09/04 12:58:18;;;;;;;4.57;3.28;;;28.90;56.10;;;;;;2591387;52;21414;-67